createdAt,value
2023-02-26T00:01:38.709Z,8.40
2023-02-26T00:04:07.463Z,7.60
2023-02-26T00:06:39.003Z,12.80
2023-02-26T00:09:06.825Z,11.30
2023-02-26T00:11:34.576Z,6.50
2023-02-26T00:14:02.053Z,7.60
2023-02-26T00:16:38.140Z,11.77
2023-02-26T00:19:08.029Z,9.10
2023-02-26T00:21:36.663Z,9.27
2023-02-26T00:24:06.614Z,12.90
2023-02-26T00:26:34.935Z,8.27
2023-02-26T00:29:03.757Z,10.07
2023-02-26T00:31:31.687Z,7.70
2023-02-26T00:33:59.202Z,7.90
2023-02-26T00:36:45.426Z,9.73
2023-02-26T00:39:21.787Z,7.93
2023-02-26T00:41:49.276Z,9.20
2023-02-26T00:44:17.085Z,5.67
2023-02-26T00:47:14.183Z,8.07
2023-02-26T00:50:02.232Z,5.80
2023-02-26T00:52:55.317Z,10.40
2023-02-26T00:55:22.513Z,5.20
2023-02-26T00:57:49.650Z,7.87
2023-02-26T01:00:17.808Z,7.87
2023-02-26T01:02:45.837Z,8.63
2023-02-26T01:05:14.721Z,8.17
2023-02-26T01:08:06.561Z,9.87
2023-02-26T01:10:34.648Z,8.80
2023-02-26T01:13:02.016Z,7.43
2023-02-26T01:15:29.772Z,7.03
2023-02-26T01:18:12.542Z,7.10
2023-02-26T01:20:49.696Z,6.43
2023-02-26T01:23:25.203Z,7.00
2023-02-26T01:26:22.329Z,7.47
2023-02-26T01:28:50.088Z,11.67
2023-02-26T01:32:03.788Z,6.93
2023-02-26T01:34:45.915Z,8.73
2023-02-26T01:37:34.198Z,6.10
2023-02-26T01:40:06.961Z,12.73
2023-02-26T01:42:40.205Z,6.03
2023-02-26T01:45:21.544Z,9.10
2023-02-26T01:48:11.757Z,6.80
2023-02-26T01:50:39.806Z,8.90
2023-02-26T01:53:25.947Z,9.70
2023-02-26T01:56:00.298Z,11.37
2023-02-26T01:58:32.108Z,6.63
2023-02-26T02:00:59.203Z,6.50
2023-02-26T02:03:29.623Z,7.63
2023-02-26T02:06:21.334Z,6.77
2023-02-26T02:08:48.762Z,6.20
2023-02-26T02:11:16.408Z,7.37
2023-02-26T02:14:37.147Z,7.97
2023-02-26T02:17:36.644Z,7.03
2023-02-26T02:20:31.811Z,7.27
2023-02-26T02:23:16.290Z,5.13
2023-02-26T02:25:54.451Z,5.53
2023-02-26T02:28:46.113Z,4.73
2023-02-26T02:31:22.204Z,6.87
2023-02-26T02:34:14.034Z,5.90
2023-02-26T02:37:11.247Z,7.10
2023-02-26T02:40:01.897Z,5.43
2023-02-26T02:42:44.097Z,5.47
2023-02-26T02:45:27.563Z,5.10
2023-02-26T02:48:05.352Z,5.63
2023-02-26T02:50:52.384Z,4.93
2023-02-26T02:53:31.972Z,4.53
2023-02-26T02:56:18.836Z,8.60
2023-02-26T02:59:11.402Z,5.97
2023-02-26T03:01:42.004Z,4.47
2023-02-26T03:04:17.455Z,4.33
2023-02-26T03:06:46.852Z,5.57
2023-02-26T03:09:14.266Z,5.90
2023-02-26T03:11:41.986Z,6.13
2023-02-26T03:14:10.847Z,4.77
2023-02-26T03:17:21.283Z,5.80
2023-02-26T03:20:05.484Z,5.17
2023-02-26T03:22:45.408Z,4.40
2023-02-26T03:25:35.533Z,3.83
2023-02-26T03:28:27.576Z,6.13
2023-02-26T03:31:17.871Z,3.17
2023-02-26T03:34:00.449Z,4.20
2023-02-26T03:36:45.099Z,3.90
2023-02-26T03:39:20.937Z,5.70
2023-02-26T03:42:02.153Z,1.83
2023-02-26T03:44:40.510Z,3.83
2023-02-26T03:47:13.880Z,5.77
2023-02-26T03:50:00.910Z,5.67
2023-02-26T03:52:34.593Z,4.23
2023-02-26T03:55:36.281Z,6.07
2023-02-26T03:58:03.510Z,4.03
2023-02-26T04:00:34.770Z,4.37
2023-02-26T04:03:12.464Z,4.43
2023-02-26T04:05:45.905Z,4.00
2023-02-26T04:08:13.272Z,5.67
2023-02-26T04:10:46.032Z,4.70
2023-02-26T04:13:13.387Z,5.13
2023-02-26T04:15:40.540Z,4.23
2023-02-26T04:18:07.689Z,7.40
2023-02-26T04:20:35.144Z,6.83
2023-02-26T04:23:02.410Z,5.70
2023-02-26T04:25:29.733Z,3.07
2023-02-26T04:27:57.089Z,6.50
2023-02-26T04:30:24.460Z,4.97
2023-02-26T04:32:51.475Z,5.93
2023-02-26T04:35:19.371Z,3.33
2023-02-26T04:37:46.826Z,4.20
2023-02-26T04:40:14.370Z,5.20
2023-02-26T04:42:41.616Z,4.37
2023-02-26T04:45:09.355Z,3.70
2023-02-26T04:47:36.908Z,4.77
2023-02-26T04:50:05.016Z,4.83
2023-02-26T04:52:32.141Z,5.30
2023-02-26T04:54:59.208Z,5.43
2023-02-26T04:57:26.462Z,4.80
2023-02-26T04:59:53.460Z,5.43
2023-02-26T05:02:20.676Z,4.27
2023-02-26T05:04:47.848Z,6.90
2023-02-26T05:07:15.026Z,3.77
2023-02-26T05:09:42.171Z,3.43
2023-02-26T05:12:09.530Z,7.00
2023-02-26T05:14:36.653Z,6.40
2023-02-26T05:17:04.013Z,6.10
2023-02-26T05:19:31.031Z,2.77
2023-02-26T05:21:58.237Z,6.43
2023-02-26T05:24:25.452Z,2.83
2023-02-26T05:26:52.485Z,4.73
2023-02-26T05:29:19.785Z,8.10
2023-02-26T05:31:46.986Z,3.70
2023-02-26T05:34:14.283Z,5.13
2023-02-26T05:36:41.479Z,5.03
2023-02-26T05:39:10.398Z,6.33
2023-02-26T05:41:37.698Z,3.23
2023-02-26T05:44:04.881Z,4.23
2023-02-26T05:46:32.149Z,4.20
2023-02-26T05:48:59.307Z,6.03
2023-02-26T05:51:26.788Z,7.43
2023-02-26T05:53:54.041Z,4.50
2023-02-26T05:56:21.297Z,3.80
2023-02-26T05:58:48.662Z,7.37
2023-02-26T06:01:16.118Z,6.87
2023-02-26T06:03:44.383Z,3.03
2023-02-26T06:06:16.370Z,6.07
2023-02-26T06:08:43.740Z,2.73
2023-02-26T06:11:10.903Z,6.73
2023-02-26T06:13:38.278Z,4.20
2023-02-26T06:16:06.045Z,6.37
2023-02-26T06:18:33.886Z,3.30
2023-02-26T06:21:02.435Z,4.03
2023-02-26T06:23:29.766Z,3.97
2023-02-26T06:25:56.989Z,3.30
2023-02-26T06:28:24.722Z,3.67
2023-02-26T06:30:53.657Z,4.50
2023-02-26T06:33:21.337Z,5.97
2023-02-26T06:35:49.089Z,3.73
2023-02-26T06:38:17.091Z,3.10
2023-02-26T06:40:45.156Z,4.97
2023-02-26T06:43:12.441Z,6.10
2023-02-26T06:45:39.674Z,5.37
2023-02-26T06:48:06.663Z,2.07
2023-02-26T06:50:34.013Z,6.20
2023-02-26T06:53:01.064Z,5.07
2023-02-26T06:55:28.247Z,4.87
2023-02-26T06:57:57.186Z,5.77
2023-02-26T07:00:26.204Z,3.63
2023-02-26T07:02:53.794Z,2.83
2023-02-26T07:05:20.961Z,3.27
2023-02-26T07:07:48.527Z,2.70
2023-02-26T07:10:15.761Z,5.13
2023-02-26T07:12:43.008Z,4.73
2023-02-26T07:15:10.603Z,6.97
2023-02-26T07:17:38.120Z,5.77
2023-02-26T07:20:09.902Z,2.93
2023-02-26T07:22:40.423Z,6.20
2023-02-26T07:25:08.698Z,8.13
2023-02-26T07:27:36.355Z,3.27
2023-02-26T07:30:05.690Z,2.60
2023-02-26T07:32:33.060Z,5.93
2023-02-26T07:35:00.315Z,2.47
2023-02-26T07:37:29.150Z,3.57
2023-02-26T07:39:56.465Z,6.30
2023-02-26T07:42:23.817Z,3.50
2023-02-26T07:44:51.083Z,5.80
2023-02-26T07:47:18.510Z,4.73
2023-02-26T07:49:45.562Z,4.40
2023-02-26T07:52:12.863Z,3.83
2023-02-26T07:54:40.384Z,5.27
2023-02-26T07:57:07.687Z,2.93
2023-02-26T07:59:34.991Z,6.60
2023-02-26T08:02:02.444Z,3.77
2023-02-26T08:04:30.022Z,3.07
2023-02-26T08:06:57.773Z,3.23
2023-02-26T08:09:26.021Z,4.23
2023-02-26T08:11:53.289Z,3.80
2023-02-26T08:14:20.481Z,4.57
2023-02-26T08:16:47.713Z,5.03
2023-02-26T08:19:15.060Z,3.93
2023-02-26T08:21:42.099Z,5.43
2023-02-26T08:24:12.558Z,3.60
2023-02-26T08:26:39.790Z,3.50
2023-02-26T08:29:07.575Z,3.73
2023-02-26T08:31:35.455Z,3.73
2023-02-26T08:34:02.897Z,2.73
2023-02-26T08:36:31.805Z,5.53
2023-02-26T08:38:59.318Z,5.80
2023-02-26T08:41:29.904Z,5.53
2023-02-26T08:43:57.132Z,3.30
2023-02-26T08:46:24.629Z,3.43
2023-02-26T08:48:52.009Z,2.43
2023-02-26T08:51:21.823Z,4.53
2023-02-26T08:53:50.390Z,3.03
2023-02-26T08:56:17.821Z,4.37
2023-02-26T08:58:45.300Z,3.53
2023-02-26T09:01:12.508Z,4.53
2023-02-26T09:03:39.984Z,5.37
2023-02-26T09:06:07.551Z,1.90
2023-02-26T09:08:35.039Z,2.73
2023-02-26T09:11:03.663Z,3.73
2023-02-26T09:13:31.404Z,2.37
2023-02-26T09:15:58.847Z,1.93
2023-02-26T09:18:26.415Z,2.13
2023-02-26T09:20:53.859Z,2.60
2023-02-26T09:23:21.164Z,3.43
2023-02-26T09:25:54.611Z,3.43
2023-02-26T09:28:24.217Z,2.83
2023-02-26T09:30:55.880Z,2.00
2023-02-26T09:33:23.820Z,2.43
2023-02-26T09:35:52.725Z,2.30
2023-02-26T09:38:20.740Z,4.87
2023-02-26T09:40:54.279Z,3.87
2023-02-26T09:44:11.307Z,2.00
2023-02-26T09:46:54.397Z,1.47
2023-02-26T09:49:39.814Z,3.67
2023-02-26T09:52:44.375Z,3.53
2023-02-26T09:55:30.120Z,1.73
2023-02-26T09:58:03.486Z,3.13
2023-02-26T10:01:13.711Z,3.27
2023-02-26T10:04:37.974Z,2.60
2023-02-26T10:07:26.776Z,2.80
2023-02-26T10:10:21.532Z,3.03
2023-02-26T10:12:51.633Z,3.00
2023-02-26T10:15:29.340Z,2.83
2023-02-26T10:18:21.284Z,1.23
2023-02-26T10:21:15.461Z,2.60
2023-02-26T10:24:08.871Z,2.93
2023-02-26T10:26:45.277Z,3.20
2023-02-26T10:29:34.771Z,2.03
2023-02-26T10:32:32.504Z,5.00
2023-02-26T10:35:23.914Z,1.13
2023-02-26T10:38:04.994Z,1.37
2023-02-26T10:40:43.230Z,2.23
2023-02-26T10:43:20.089Z,2.37
2023-02-26T10:46:30.215Z,3.13
2023-02-26T10:48:59.909Z,2.17
2023-02-26T10:51:38.232Z,3.03
2023-02-26T10:54:36.121Z,3.23
2023-02-26T10:57:04.228Z,4.63
2023-02-26T10:59:32.031Z,3.33
2023-02-26T11:02:00.445Z,2.40
2023-02-26T11:04:28.473Z,2.93
2023-02-26T11:07:02.538Z,1.87
2023-02-26T11:09:38.774Z,5.13
2023-02-26T11:12:15.056Z,2.87
2023-02-26T11:14:48.670Z,1.70
2023-02-26T11:17:32.472Z,4.70
2023-02-26T11:20:25.206Z,3.17
2023-02-26T11:22:58.302Z,3.23
2023-02-26T11:25:35.018Z,2.43
2023-02-26T11:28:24.440Z,3.57
2023-02-26T11:30:54.479Z,1.70
2023-02-26T11:33:35.553Z,1.97
2023-02-26T11:36:09.748Z,2.00
2023-02-26T11:38:37.482Z,1.47
2023-02-26T11:41:06.098Z,1.33
2023-02-26T11:44:08.781Z,3.67
2023-02-26T11:46:55.492Z,2.90
2023-02-26T11:49:27.567Z,1.77
2023-02-26T11:52:28.971Z,7.20
2023-02-26T11:55:17.253Z,1.83
2023-02-26T11:57:45.245Z,1.80
2023-02-26T12:00:24.883Z,3.10
2023-02-26T12:02:56.999Z,1.47
2023-02-26T12:05:24.287Z,1.30
2023-02-26T12:07:51.655Z,1.73
2023-02-26T12:10:32.492Z,1.03
2023-02-26T12:13:39.220Z,3.50
2023-02-26T12:16:32.495Z,2.97
2023-02-26T12:19:19.848Z,1.33
2023-02-26T12:22:04.715Z,1.37
2023-02-26T12:25:04.407Z,2.07
2023-02-26T12:27:57.091Z,0.67
2023-02-26T12:30:55.370Z,2.27
2023-02-26T12:33:55.313Z,2.30
2023-02-26T12:36:49.805Z,1.77
2023-02-26T12:39:50.765Z,2.47
2023-02-26T12:42:26.230Z,3.13
2023-02-26T12:45:31.551Z,2.90
2023-02-26T12:48:28.780Z,3.03
2023-02-26T12:51:20.761Z,2.13
2023-02-26T12:54:08.710Z,1.60
2023-02-26T12:56:38.883Z,1.70
2023-02-26T12:59:24.182Z,1.83
2023-02-26T13:02:28.367Z,1.90
2023-02-26T13:05:36.899Z,1.87
2023-02-26T13:08:41.761Z,1.97
2023-02-26T13:11:52.190Z,1.80
2023-02-26T13:14:31.109Z,1.97
2023-02-26T13:17:16.706Z,2.30
2023-02-26T13:19:53.901Z,2.20
2023-02-26T13:22:33.026Z,2.27
2023-02-26T13:25:12.694Z,1.30
2023-02-26T13:27:43.183Z,2.43
2023-02-26T13:30:32.935Z,1.43
2023-02-26T13:33:01.531Z,1.57
2023-02-26T13:35:38.615Z,1.67
2023-02-26T13:38:26.622Z,2.63
2023-02-26T13:41:10.011Z,1.40
2023-02-26T13:44:20.317Z,1.40
2023-02-26T13:46:50.011Z,0.60
2023-02-26T13:49:35.332Z,2.47
2023-02-26T13:52:02.684Z,1.67
2023-02-26T13:54:46.493Z,1.30
2023-02-26T13:57:34.200Z,1.37
2023-02-26T14:00:33.077Z,1.20
2023-02-26T14:03:19.323Z,1.47
2023-02-26T14:05:46.515Z,1.80
2023-02-26T14:08:46.682Z,2.00
2023-02-26T14:11:33.148Z,2.20
2023-02-26T14:14:19.307Z,2.80
2023-02-26T14:17:08.255Z,2.60
2023-02-26T14:20:07.126Z,1.17
2023-02-26T14:22:41.810Z,3.03
2023-02-26T14:25:36.425Z,3.07
2023-02-26T14:28:25.562Z,2.57
2023-02-26T14:31:12.877Z,3.17
2023-02-26T14:34:03.133Z,3.07
2023-02-26T14:37:12.743Z,1.53
2023-02-26T14:39:47.427Z,1.50
2023-02-26T14:42:31.190Z,1.17
2023-02-26T14:45:31.975Z,1.90
2023-02-26T14:48:03.728Z,2.20
2023-02-26T14:50:46.539Z,1.53
2023-02-26T14:53:38.480Z,4.00
2023-02-26T14:56:20.842Z,2.00
2023-02-26T14:59:31.723Z,0.97
2023-02-26T15:02:24.664Z,1.33
2023-02-26T15:05:22.645Z,1.90
2023-02-26T15:08:28.129Z,2.13
2023-02-26T15:11:36.218Z,1.80
2023-02-26T15:15:11.306Z,1.20
2023-02-26T15:18:09.004Z,2.90
2023-02-26T15:20:55.412Z,2.60
2023-02-26T15:23:37.739Z,2.40
2023-02-26T15:26:06.786Z,1.63
2023-02-26T15:28:41.543Z,2.03
2023-02-26T15:31:13.769Z,1.63
2023-02-26T15:33:42.000Z,3.47
2023-02-26T15:36:15.987Z,4.30
2023-02-26T15:38:49.970Z,2.97
2023-02-26T15:41:18.548Z,2.87
2023-02-26T15:43:58.027Z,1.47
2023-02-26T15:46:35.062Z,2.43
2023-02-26T15:49:08.641Z,1.50
2023-02-26T15:51:36.682Z,2.00
2023-02-26T15:54:04.974Z,1.50
2023-02-26T15:56:39.426Z,2.40
2023-02-26T15:59:28.215Z,1.33
2023-02-26T16:01:55.775Z,1.37
2023-02-26T16:04:24.148Z,2.13
2023-02-26T16:06:58.341Z,1.47
2023-02-26T16:09:39.555Z,2.20
2023-02-26T16:12:20.418Z,1.73
2023-02-26T16:14:57.426Z,1.20
2023-02-26T16:17:33.268Z,1.47
2023-02-26T16:20:06.080Z,4.40
2023-02-26T16:22:39.161Z,2.80
2023-02-26T16:25:46.656Z,2.57
2023-02-26T16:28:26.713Z,5.40
2023-02-26T16:30:57.857Z,1.73
2023-02-26T16:33:27.557Z,2.10
2023-02-26T16:36:15.697Z,3.37
2023-02-26T16:38:50.728Z,2.10
2023-02-26T16:41:25.561Z,2.23
2023-02-26T16:44:01.347Z,2.93
2023-02-26T16:46:34.183Z,2.10
2023-02-26T16:49:16.947Z,2.70
2023-02-26T16:51:45.112Z,3.47
2023-02-26T16:54:28.617Z,1.50
2023-02-26T16:57:36.658Z,2.13
2023-02-26T17:00:17.934Z,1.70
2023-02-26T17:02:49.008Z,2.20
2023-02-26T17:05:29.542Z,2.47
2023-02-26T17:08:08.758Z,2.50
2023-02-26T17:10:45.808Z,2.93
2023-02-26T17:13:20.969Z,3.83
2023-02-26T17:15:49.246Z,3.30
2023-02-26T17:18:17.056Z,4.33
2023-02-26T17:20:45.414Z,3.37
2023-02-26T17:23:17.308Z,4.43
2023-02-26T17:25:49.872Z,2.73
2023-02-26T17:28:26.727Z,9.00
2023-02-26T17:30:57.101Z,2.80
2023-02-26T17:33:24.282Z,3.67
2023-02-26T17:35:52.605Z,3.07
2023-02-26T17:38:19.900Z,22.87
2023-02-26T17:40:47.847Z,21.03
2023-02-26T17:43:15.483Z,11.13
2023-02-26T17:45:42.754Z,10.93
2023-02-26T17:48:13.439Z,9.53
2023-02-26T17:50:54.921Z,8.93
2023-02-26T17:53:27.466Z,5.27
2023-02-26T17:55:56.761Z,6.07
2023-02-26T17:58:32.081Z,6.80
2023-02-26T18:01:00.292Z,9.77
2023-02-26T18:03:27.495Z,7.40
2023-02-26T18:05:58.305Z,7.40
2023-02-26T18:08:46.185Z,6.67
2023-02-26T18:11:20.489Z,7.53
2023-02-26T18:13:51.524Z,4.77
2023-02-26T18:16:39.014Z,6.17
2023-02-26T18:19:16.060Z,6.23
2023-02-26T18:24:36.261Z,5.00
2023-02-26T18:27:07.496Z,3.97
2023-02-26T18:29:46.809Z,4.47
2023-02-26T18:35:06.318Z,2.87
2023-02-26T18:37:39.329Z,4.20
2023-02-26T18:43:00.963Z,5.47
2023-02-26T18:46:01.599Z,5.03
2023-02-26T18:48:34.825Z,5.57
2023-02-26T18:55:22.115Z,5.17
2023-02-26T18:59:00.589Z,7.60
2023-02-26T19:01:32.945Z,8.03
2023-02-26T19:04:10.077Z,5.70
2023-02-26T19:07:16.013Z,5.63
2023-02-26T19:10:17.431Z,6.63
2023-02-26T19:16:12.213Z,3.93
2023-02-26T19:19:33.848Z,2.60
2023-02-26T19:26:41.229Z,4.03
2023-02-26T19:31:05.605Z,2.47
2023-02-26T19:37:17.832Z,3.20
2023-02-26T19:40:07.463Z,2.43
2023-02-26T19:42:46.855Z,4.23
2023-02-26T19:50:23.445Z,2.93
2023-02-26T19:59:45.454Z,2.33
2023-02-26T20:02:28.554Z,2.47
2023-02-26T20:05:34.707Z,2.87
2023-02-26T20:08:42.114Z,3.13
2023-02-26T20:14:34.619Z,3.10
2023-02-26T20:19:51.426Z,2.47
2023-02-26T20:23:10.709Z,4.33
2023-02-26T20:30:03.877Z,5.43
2023-02-26T20:33:25.229Z,3.07
2023-02-26T20:35:55.729Z,3.27
2023-02-26T20:39:29.296Z,3.53
2023-02-26T20:42:02.432Z,5.07
2023-02-26T20:44:42.135Z,5.70
2023-02-26T20:47:09.807Z,3.53
2023-02-26T20:49:42.632Z,6.47
2023-02-26T20:52:12.968Z,4.73
2023-02-26T20:54:53.257Z,3.63
2023-02-26T20:57:24.284Z,3.30
2023-02-26T20:59:54.434Z,7.37
2023-02-26T21:02:22.015Z,4.67
2023-02-26T21:04:49.636Z,4.57
2023-02-26T21:07:23.747Z,5.97
2023-02-26T21:09:54.193Z,5.23
2023-02-26T21:12:21.417Z,3.60
2023-02-26T21:14:51.335Z,6.83
2023-02-26T21:17:26.401Z,3.97
2023-02-26T21:19:57.776Z,5.23
2023-02-26T21:22:31.304Z,3.20
2023-02-26T21:24:59.320Z,5.10
2023-02-26T21:27:26.513Z,5.13
2023-02-26T21:33:03.078Z,3.70
2023-02-26T21:35:36.335Z,3.07
2023-02-26T21:38:03.652Z,4.37
2023-02-26T21:40:37.776Z,3.00
2023-02-26T21:43:05.136Z,2.47
2023-02-26T21:45:34.691Z,4.30
2023-02-26T21:48:03.498Z,5.07
2023-02-26T21:50:32.454Z,3.10
2023-02-26T21:53:00.168Z,3.50
2023-02-26T21:55:28.170Z,8.17
2023-02-26T21:57:55.608Z,5.00
2023-02-26T22:00:23.782Z,5.53
2023-02-26T22:02:51.187Z,4.33
2023-02-26T22:05:18.619Z,3.33
2023-02-26T22:07:46.569Z,4.87
2023-02-26T22:10:15.381Z,4.93
2023-02-26T22:12:42.794Z,4.07
2023-02-26T22:15:10.443Z,3.00
2023-02-26T22:17:37.998Z,2.90
2023-02-26T22:20:09.990Z,4.13
2023-02-26T22:22:46.353Z,4.97
2023-02-26T22:25:16.392Z,4.50
2023-02-26T22:27:43.666Z,5.43
2023-02-26T22:30:11.956Z,2.60
2023-02-26T22:32:41.285Z,3.57
2023-02-26T22:35:08.989Z,3.07
2023-02-26T22:37:36.509Z,6.40
2023-02-26T22:40:04.327Z,8.47
2023-02-26T22:42:31.440Z,5.40
2023-02-26T22:44:58.716Z,3.57
2023-02-26T22:47:25.859Z,4.40
2023-02-26T22:49:52.985Z,3.10
2023-02-26T22:52:20.312Z,2.33
2023-02-26T22:54:47.795Z,4.47
2023-02-26T22:57:15.278Z,3.77
2023-02-26T22:59:43.152Z,3.87
2023-02-26T23:02:10.813Z,4.37
2023-02-26T23:04:38.449Z,4.23
2023-02-26T23:07:05.893Z,6.47
2023-02-26T23:09:33.243Z,3.53
2023-02-26T23:12:00.622Z,5.77
2023-02-26T23:14:28.106Z,4.27
2023-02-26T23:16:57.698Z,7.57
2023-02-26T23:19:25.168Z,4.37
2023-02-26T23:21:52.622Z,3.60
2023-02-26T23:24:19.802Z,3.83
2023-02-26T23:26:47.074Z,3.97
2023-02-26T23:29:14.338Z,2.90
2023-02-26T23:31:41.987Z,4.57
2023-02-26T23:34:10.990Z,8.73
2023-02-26T23:36:38.180Z,4.73
2023-02-26T23:39:05.441Z,5.07
2023-02-26T23:41:32.748Z,2.67
2023-02-26T23:44:00.189Z,3.83
2023-02-26T23:46:27.616Z,5.03
2023-02-26T23:48:55.669Z,4.67
2023-02-26T23:51:23.287Z,3.80
2023-02-26T23:53:50.933Z,5.40
2023-02-26T23:56:18.223Z,3.47
2023-02-26T23:58:45.705Z,4.77
